createdAt,value
2023-05-06T00:00:54.801Z,0
2023-05-06T00:01:55.506Z,0
2023-05-06T00:02:56.635Z,0
2023-05-06T00:03:58.262Z,0
2023-05-06T00:04:57.747Z,0
2023-05-06T00:05:57.060Z,0
2023-05-06T00:06:57.579Z,0
2023-05-06T00:07:58.492Z,0
2023-05-06T00:08:59.609Z,0
2023-05-06T00:09:59.697Z,0
2023-05-06T00:11:01.799Z,0
2023-05-06T00:12:01.308Z,0
2023-05-06T00:13:02.419Z,0
2023-05-06T00:14:02.679Z,0
2023-05-06T00:15:03.381Z,0
2023-05-06T00:16:04.071Z,0
2023-05-06T00:17:04.400Z,0
2023-05-06T00:18:05.955Z,0
2023-05-06T00:19:05.796Z,0
2023-05-06T00:20:06.702Z,0
2023-05-06T00:21:07.228Z,0
2023-05-06T00:22:07.769Z,0
2023-05-06T00:23:09.005Z,0
2023-05-06T00:24:08.778Z,0
2023-05-06T00:25:09.268Z,0
2023-05-06T00:26:10.013Z,0
2023-05-06T00:27:10.304Z,0
2023-05-06T00:28:10.864Z,0
2023-05-06T00:29:11.779Z,0
2023-05-06T00:30:12.524Z,0
2023-05-06T00:31:13.430Z,0
2023-05-06T00:32:14.403Z,0
2023-05-06T00:33:15.103Z,0
2023-05-06T00:34:15.722Z,0
2023-05-06T00:35:16.990Z,0
2023-05-06T00:36:17.100Z,0
2023-05-06T00:37:17.621Z,0
2023-05-06T00:38:18.258Z,0
2023-05-06T00:39:18.954Z,0
2023-05-06T00:40:19.768Z,0
2023-05-06T00:41:20.323Z,0
2023-05-06T00:42:21.027Z,0
2023-05-06T00:43:21.599Z,0
2023-05-06T00:44:22.326Z,0
2023-05-06T00:45:23.112Z,0
2023-05-06T00:46:23.981Z,0
2023-05-06T00:47:24.532Z,0
2023-05-06T00:48:25.061Z,0
2023-05-06T00:49:26.028Z,0
2023-05-06T00:50:27.063Z,0
2023-05-06T00:51:28.050Z,0
2023-05-06T00:52:27.543Z,0
2023-05-06T00:53:28.545Z,0
2023-05-06T00:54:28.961Z,0
2023-05-06T00:55:29.676Z,0
2023-05-06T00:56:31.504Z,0
2023-05-06T00:57:30.831Z,0
2023-05-06T00:58:32.109Z,0
2023-05-06T00:59:32.189Z,0
2023-05-06T01:00:32.881Z,0
2023-05-06T01:01:34.098Z,0
2023-05-06T01:02:54.465Z,0
2023-05-06T01:03:34.183Z,0
2023-05-06T01:04:34.395Z,0
2023-05-06T01:05:35.695Z,0
2023-05-06T01:06:36.222Z,0
2023-05-06T01:07:36.527Z,0
2023-05-06T01:08:37.524Z,0
2023-05-06T01:09:37.628Z,0
2023-05-06T01:10:38.126Z,0
2023-05-06T01:11:38.597Z,0
2023-05-06T01:12:39.303Z,0
2023-05-06T01:13:39.919Z,0
2023-05-06T01:14:39.533Z,0
2023-05-06T01:15:40.030Z,0
2023-05-06T01:16:41.105Z,0
2023-05-06T01:17:41.790Z,0
2023-05-06T01:18:42.284Z,0
2023-05-06T01:19:42.900Z,0
2023-05-06T01:20:43.629Z,0
2023-05-06T01:21:43.919Z,0
2023-05-06T01:22:44.445Z,0
2023-05-06T01:23:44.984Z,0
2023-05-06T01:24:45.647Z,0
2023-05-06T01:25:46.566Z,0
2023-05-06T01:26:47.659Z,0
2023-05-06T01:27:48.167Z,0
2023-05-06T01:28:48.951Z,0
2023-05-06T01:29:49.896Z,0
2023-05-06T01:30:50.645Z,0
2023-05-06T01:31:51.490Z,0
2023-05-06T01:32:52.217Z,0
2023-05-06T01:33:53.136Z,0
2023-05-06T01:34:53.652Z,0
2023-05-06T01:35:53.162Z,0
2023-05-06T01:36:53.855Z,0
2023-05-06T01:37:54.953Z,0
2023-05-06T01:38:55.868Z,0
2023-05-06T01:39:55.482Z,0
2023-05-06T01:40:56.222Z,0
2023-05-06T01:41:56.981Z,0
2023-05-06T01:42:57.489Z,0
2023-05-06T01:43:58.676Z,0
2023-05-06T01:44:59.385Z,0
2023-05-06T01:45:59.710Z,0
2023-05-06T01:47:00.552Z,0
2023-05-06T01:48:01.706Z,0
2023-05-06T01:49:01.265Z,0
2023-05-06T01:50:02.355Z,0
2023-05-06T01:51:03.262Z,0
2023-05-06T01:52:03.842Z,0
2023-05-06T01:53:04.350Z,0
2023-05-06T01:54:05.009Z,0
2023-05-06T01:55:05.187Z,0
2023-05-06T01:56:05.704Z,0
2023-05-06T01:57:06.786Z,0
2023-05-06T01:58:07.111Z,0
2023-05-06T01:59:10.239Z,0
2023-05-06T02:00:07.519Z,0
2023-05-06T02:01:08.018Z,0
2023-05-06T02:02:09.492Z,0
2023-05-06T02:03:09.416Z,0
2023-05-06T02:04:10.539Z,0
2023-05-06T02:05:10.602Z,0
2023-05-06T02:06:10.289Z,0
2023-05-06T02:07:11.395Z,0
2023-05-06T02:08:11.637Z,0
2023-05-06T02:09:12.377Z,0
2023-05-06T02:10:12.880Z,0
2023-05-06T02:11:13.612Z,0
2023-05-06T02:12:14.655Z,0
2023-05-06T02:13:15.400Z,0
2023-05-06T02:14:15.800Z,0
2023-05-06T02:15:16.921Z,0
2023-05-06T02:16:17.662Z,0
2023-05-06T02:17:18.661Z,0
2023-05-06T02:18:18.990Z,0
2023-05-06T02:19:19.532Z,0
2023-05-06T02:20:20.895Z,0
2023-05-06T02:21:20.390Z,0
2023-05-06T02:22:21.104Z,0
2023-05-06T02:23:21.794Z,0
2023-05-06T02:24:22.400Z,0
2023-05-06T02:25:23.174Z,0
2023-05-06T02:26:23.468Z,0
2023-05-06T02:27:24.432Z,0
2023-05-06T02:28:24.542Z,0
2023-05-06T02:29:25.337Z,0
2023-05-06T02:30:26.297Z,0
2023-05-06T02:31:26.177Z,0
2023-05-06T02:32:26.928Z,0
2023-05-06T02:33:27.422Z,0
2023-05-06T02:34:28.396Z,0
2023-05-06T02:35:29.269Z,0
2023-05-06T02:36:29.175Z,0
2023-05-06T02:37:29.652Z,0
2023-05-06T02:38:30.597Z,0
2023-05-06T02:39:31.392Z,0
2023-05-06T02:40:31.889Z,0
2023-05-06T02:41:32.405Z,0
2023-05-06T02:42:33.012Z,0
2023-05-06T02:43:33.811Z,0
2023-05-06T02:44:34.565Z,0
2023-05-06T02:45:35.313Z,0
2023-05-06T02:46:36.093Z,0
2023-05-06T02:47:36.868Z,0
2023-05-06T02:48:37.613Z,0
2023-05-06T02:49:38.065Z,0
2023-05-06T02:50:38.726Z,0
2023-05-06T02:51:39.644Z,0
2023-05-06T02:52:40.567Z,0
2023-05-06T02:53:41.080Z,0
2023-05-06T02:54:41.772Z,0
2023-05-06T02:55:41.793Z,0
2023-05-06T02:56:42.318Z,0
2023-05-06T02:57:42.691Z,0
2023-05-06T02:58:43.433Z,0
2023-05-06T02:59:44.418Z,0
2023-05-06T03:00:44.577Z,0
2023-05-06T03:01:45.654Z,0
2023-05-06T03:02:45.625Z,0
2023-05-06T03:03:46.719Z,0
2023-05-06T03:04:47.529Z,0
2023-05-06T03:05:48.627Z,0
2023-05-06T03:06:48.339Z,0
2023-05-06T03:07:49.251Z,0
2023-05-06T03:08:49.952Z,0
2023-05-06T03:09:50.562Z,0
2023-05-06T03:10:50.844Z,0
2023-05-06T03:11:51.324Z,0
2023-05-06T03:12:52.323Z,0
2023-05-06T03:13:52.673Z,0
2023-05-06T03:14:53.727Z,0
2023-05-06T03:15:54.221Z,0
2023-05-06T03:16:55.067Z,0
2023-05-06T03:17:55.927Z,0
2023-05-06T03:18:56.649Z,0
2023-05-06T03:19:56.958Z,0
2023-05-06T03:20:57.897Z,0
2023-05-06T03:21:58.926Z,0
2023-05-06T03:22:59.750Z,0
2023-05-06T03:24:00.258Z,0
2023-05-06T03:25:01.308Z,0
2023-05-06T03:26:01.866Z,0
2023-05-06T03:27:02.393Z,0
2023-05-06T03:28:03.383Z,0
2023-05-06T03:29:03.893Z,0
2023-05-06T03:30:04.816Z,0
2023-05-06T03:31:05.556Z,0
2023-05-06T03:32:06.835Z,0
2023-05-06T03:33:07.815Z,0
2023-05-06T03:34:07.373Z,0
2023-05-06T03:35:08.538Z,0
2023-05-06T03:36:09.215Z,0
2023-05-06T03:37:09.774Z,0
2023-05-06T03:38:10.338Z,0
2023-05-06T03:39:11.246Z,0
2023-05-06T03:40:11.698Z,0
2023-05-06T03:41:11.767Z,0
2023-05-06T03:42:14.915Z,0
2023-05-06T03:43:13.623Z,0
2023-05-06T03:44:14.147Z,0
2023-05-06T03:45:15.598Z,0
2023-05-06T03:47:16.281Z,0
2023-05-06T03:48:17.509Z,0
2023-05-06T03:49:18.459Z,0
2023-05-06T03:50:18.389Z,0
2023-05-06T03:51:19.322Z,0
2023-05-06T03:52:18.832Z,0
2023-05-06T03:53:19.536Z,0
2023-05-06T03:54:20.268Z,0
2023-05-06T03:55:21.858Z,0
2023-05-06T03:56:21.313Z,0
2023-05-06T03:57:22.024Z,0
2023-05-06T03:58:22.719Z,0
2023-05-06T03:59:23.258Z,0
2023-05-06T04:00:24.072Z,0
2023-05-06T04:01:25.077Z,0
2023-05-06T04:02:25.899Z,0
2023-05-06T04:03:26.738Z,0
2023-05-06T04:04:27.362Z,0
2023-05-06T04:05:28.418Z,0
2023-05-06T04:06:28.368Z,0
2023-05-06T04:07:29.280Z,0
2023-05-06T04:08:30.183Z,0
2023-05-06T04:09:30.679Z,0
2023-05-06T04:10:31.727Z,0
2023-05-06T04:11:33.924Z,0
2023-05-06T04:12:32.448Z,0
2023-05-06T04:13:33.528Z,5.63
2023-05-06T04:14:34.073Z,5.63
2023-05-06T04:15:34.677Z,5.63
2023-05-06T04:16:35.729Z,5.63
2023-05-06T04:17:36.451Z,5.63
2023-05-06T04:18:37.168Z,5.63
2023-05-06T04:19:37.483Z,5.63
2023-05-06T04:20:38.186Z,5.63
2023-05-06T04:21:38.682Z,5.63
2023-05-06T04:22:39.377Z,5.63
2023-05-06T04:23:39.484Z,5.63
2023-05-06T04:24:40.019Z,5.63
2023-05-06T04:25:41.252Z,5.63
2023-05-06T04:26:41.098Z,5.63
2023-05-06T04:27:41.824Z,5.63
2023-05-06T04:28:42.292Z,5.63
2023-05-06T04:29:42.785Z,5.63
2023-05-06T04:30:44.068Z,5.63
2023-05-06T04:31:44.065Z,5.63
2023-05-06T04:32:45.479Z,5.63
2023-05-06T04:33:45.027Z,11.25
2023-05-06T04:34:45.323Z,11.25
2023-05-06T04:35:46.836Z,11.25
2023-05-06T04:36:51.633Z,11.25
2023-05-06T04:37:48.706Z,11.25
2023-05-06T04:38:49.616Z,11.25
2023-05-06T04:39:50.188Z,11.25
2023-05-06T04:40:50.993Z,11.25
2023-05-06T04:41:51.464Z,16.88
2023-05-06T04:42:51.967Z,16.88
2023-05-06T04:43:52.283Z,16.88
2023-05-06T04:44:52.409Z,16.88
2023-05-06T04:45:53.265Z,16.88
2023-05-06T04:46:53.469Z,16.88
2023-05-06T04:47:54.208Z,22.5
2023-05-06T04:48:54.955Z,22.5
2023-05-06T04:49:55.513Z,22.5
2023-05-06T04:50:56.230Z,22.5
2023-05-06T04:51:57.162Z,22.5
2023-05-06T04:52:57.114Z,28.13
2023-05-06T04:53:57.616Z,28.13
2023-05-06T04:55:01.052Z,28.13
2023-05-06T04:55:58.754Z,28.13
2023-05-06T04:56:59.600Z,28.13
2023-05-06T04:58:00.297Z,28.13
2023-05-06T04:59:01.208Z,28.13
2023-05-06T05:00:01.527Z,28.13
2023-05-06T05:01:02.488Z,28.13
2023-05-06T05:02:03.237Z,33.75
2023-05-06T05:03:04.424Z,33.75
2023-05-06T05:04:04.513Z,33.75
2023-05-06T05:05:05.012Z,33.75
2023-05-06T05:06:05.498Z,33.75
2023-05-06T05:07:06.629Z,33.75
2023-05-06T05:08:05.916Z,33.75
2023-05-06T05:09:08.711Z,39.38
2023-05-06T05:10:08.260Z,45
2023-05-06T05:11:09.285Z,39.38
2023-05-06T05:12:09.794Z,39.38
2023-05-06T05:13:10.705Z,39.38
2023-05-06T05:14:13.338Z,39.38
2023-05-06T05:15:12.066Z,39.38
2023-05-06T05:16:12.846Z,45
2023-05-06T05:17:13.557Z,39.38
2023-05-06T05:18:14.610Z,50.63
2023-05-06T05:19:20.508Z,50.63
2023-05-06T05:20:15.775Z,50.63
2023-05-06T05:21:16.248Z,50.63
2023-05-06T05:22:17.061Z,50.63
2023-05-06T05:23:17.756Z,56.25
2023-05-06T05:24:18.329Z,56.25
2023-05-06T05:25:20.275Z,56.25
2023-05-06T05:26:20.071Z,56.25
2023-05-06T05:27:20.659Z,50.63
2023-05-06T05:28:21.185Z,50.63
2023-05-06T05:29:22.141Z,56.25
2023-05-06T05:30:22.699Z,56.25
2023-05-06T05:31:26.459Z,45
2023-05-06T05:32:24.018Z,50.63
2023-05-06T05:33:25.646Z,50.63
2023-05-06T05:34:25.412Z,50.63
2023-05-06T05:35:26.533Z,50.63
2023-05-06T05:36:25.613Z,56.25
2023-05-06T05:37:27.056Z,56.25
2023-05-06T05:38:28.171Z,56.25
2023-05-06T05:39:28.309Z,56.25
2023-05-06T05:40:28.670Z,56.25
2023-05-06T05:41:31.200Z,50.63
2023-05-06T05:42:30.287Z,50.63
2023-05-06T05:43:30.773Z,50.63
2023-05-06T05:44:31.782Z,45
2023-05-06T05:45:32.094Z,45
2023-05-06T05:46:33.404Z,50.63
2023-05-06T05:47:33.012Z,50.63
2023-05-06T05:48:33.541Z,61.88
2023-05-06T05:49:34.045Z,67.5
2023-05-06T05:50:34.559Z,67.5
2023-05-06T05:51:35.043Z,67.5
2023-05-06T05:52:35.935Z,67.5
2023-05-06T05:53:36.428Z,67.5
2023-05-06T05:54:36.733Z,67.5
2023-05-06T05:55:37.029Z,67.5
2023-05-06T05:56:37.782Z,73.13
2023-05-06T05:57:38.371Z,73.13
2023-05-06T05:58:39.107Z,78.75
2023-05-06T05:59:39.953Z,78.75
2023-05-06T06:00:40.705Z,78.75
2023-05-06T06:01:41.858Z,78.75
2023-05-06T06:02:41.837Z,78.75
2023-05-06T06:03:43.908Z,84.38
2023-05-06T06:04:44.213Z,84.38
2023-05-06T06:05:44.128Z,84.38
2023-05-06T06:06:44.649Z,84.38
2023-05-06T06:07:45.471Z,84.38
2023-05-06T06:08:46.347Z,67.5
2023-05-06T06:09:47.046Z,84.38
2023-05-06T06:10:47.765Z,95.63
2023-05-06T06:11:48.869Z,95.63
2023-05-06T06:12:49.602Z,95.63
2023-05-06T06:13:49.785Z,101.25
2023-05-06T06:14:50.495Z,90
2023-05-06T06:15:51.191Z,90
2023-05-06T06:16:51.846Z,112.5
2023-05-06T06:17:52.305Z,112.5
2023-05-06T06:18:52.829Z,95.63
2023-05-06T06:19:53.527Z,101.25
2023-05-06T06:20:55.404Z,84.38
2023-05-06T06:21:54.918Z,84.38
2023-05-06T06:22:55.817Z,84.38
2023-05-06T06:23:56.715Z,90
2023-05-06T06:24:57.458Z,90
2023-05-06T06:25:58.196Z,84.38
2023-05-06T06:26:58.795Z,78.75
2023-05-06T06:27:59.964Z,73.13
2023-05-06T06:29:00.286Z,73.13
2023-05-06T06:30:00.664Z,78.75
2023-05-06T06:31:01.566Z,67.5
2023-05-06T06:32:02.436Z,67.5
2023-05-06T06:33:03.392Z,67.5
2023-05-06T06:34:04.442Z,61.88
2023-05-06T06:35:04.375Z,67.5
2023-05-06T06:36:04.913Z,67.5
2023-05-06T06:37:07.373Z,73.13
2023-05-06T06:38:07.005Z,73.13
2023-05-06T06:39:06.910Z,73.13
2023-05-06T06:40:07.654Z,67.5
2023-05-06T06:41:08.165Z,61.88
2023-05-06T06:42:09.052Z,61.88
2023-05-06T06:43:09.572Z,101.25
2023-05-06T06:44:10.278Z,112.5
2023-05-06T06:45:11.218Z,112.5
2023-05-06T06:46:12.424Z,90
2023-05-06T06:47:13.212Z,118.13
2023-05-06T06:48:13.958Z,129.38
2023-05-06T06:49:14.734Z,135
2023-05-06T06:50:15.670Z,129.38
2023-05-06T06:51:15.965Z,123.75
2023-05-06T06:52:16.463Z,118.13
2023-05-06T06:53:18.002Z,112.5
2023-05-06T06:54:17.611Z,129.38
2023-05-06T06:55:18.218Z,157.5
2023-05-06T06:56:18.719Z,157.5
2023-05-06T06:57:19.337Z,95.63
2023-05-06T06:58:19.724Z,90
2023-05-06T06:59:20.436Z,315
2023-05-06T07:00:21.617Z,112.5
2023-05-06T07:01:21.156Z,433.13
2023-05-06T07:02:22.062Z,421.88
2023-05-06T07:03:23.255Z,438.75
2023-05-06T07:04:24.308Z,540
2023-05-06T07:05:24.431Z,770.63
2023-05-06T07:06:24.145Z,1023.75
2023-05-06T07:07:24.675Z,753.75
2023-05-06T07:08:26.020Z,360
2023-05-06T07:09:26.504Z,478.13
2023-05-06T07:10:27.126Z,365.63
2023-05-06T07:11:28.133Z,258.75
2023-05-06T07:12:27.861Z,230.63
2023-05-06T07:13:28.988Z,241.88
2023-05-06T07:14:28.712Z,185.63
2023-05-06T07:15:29.946Z,241.88
2023-05-06T07:16:30.085Z,157.5
2023-05-06T07:17:31.194Z,180
2023-05-06T07:18:31.834Z,151.88
2023-05-06T07:19:32.379Z,140.63
2023-05-06T07:20:32.701Z,129.38
2023-05-06T07:21:33.468Z,140.63
2023-05-06T07:22:34.018Z,213.75
2023-05-06T07:23:37.507Z,225
2023-05-06T07:24:35.442Z,168.75
2023-05-06T07:25:36.013Z,202.5
2023-05-06T07:26:36.782Z,140.63
2023-05-06T07:27:37.378Z,225
2023-05-06T07:28:37.937Z,382.5
2023-05-06T07:29:38.844Z,556.88
2023-05-06T07:30:40.015Z,151.88
2023-05-06T07:31:40.097Z,472.5
2023-05-06T07:32:41.220Z,230.63
2023-05-06T07:33:40.666Z,236.25
2023-05-06T07:34:41.376Z,236.25
2023-05-06T07:35:42.111Z,163.13
2023-05-06T07:36:45.508Z,168.75
2023-05-06T07:37:43.011Z,196.88
2023-05-06T07:38:43.668Z,286.88
2023-05-06T07:39:44.149Z,360
2023-05-06T07:40:44.733Z,416.25
2023-05-06T07:41:45.483Z,540
2023-05-06T07:42:48.379Z,343.13
2023-05-06T07:43:46.681Z,298.13
2023-05-06T07:44:47.622Z,236.25
2023-05-06T07:45:48.648Z,241.88
2023-05-06T07:46:50.214Z,163.13
2023-05-06T07:47:51.494Z,180
2023-05-06T07:48:50.136Z,219.38
2023-05-06T07:49:50.416Z,236.25
2023-05-06T07:50:51.521Z,247.5
2023-05-06T07:51:51.058Z,213.75
2023-05-06T07:52:51.365Z,191.25
2023-05-06T07:53:52.310Z,225
2023-05-06T07:54:51.818Z,247.5
2023-05-06T07:55:52.496Z,270
2023-05-06T07:56:53.666Z,174.38
2023-05-06T07:57:53.983Z,180
2023-05-06T07:58:54.411Z,230.63
2023-05-06T07:59:55.165Z,270
2023-05-06T08:00:55.838Z,230.63
2023-05-06T08:01:56.329Z,258.75
2023-05-06T08:02:58.070Z,286.88
2023-05-06T08:03:58.654Z,303.75
2023-05-06T08:05:02.589Z,253.13
2023-05-06T08:05:59.489Z,135
2023-05-06T08:07:00.409Z,112.5
2023-05-06T08:07:59.919Z,101.25
2023-05-06T08:09:00.737Z,95.63
2023-05-06T08:10:01.971Z,90
2023-05-06T08:11:02.298Z,95.63
2023-05-06T08:12:03.129Z,101.25
2023-05-06T08:13:04.385Z,95.63
2023-05-06T08:14:04.918Z,84.38
2023-05-06T08:15:05.240Z,78.75
2023-05-06T08:16:06.333Z,78.75
2023-05-06T08:17:07.155Z,90
2023-05-06T08:18:29.069Z,95.63
2023-05-06T08:20:17.273Z,95.63
2023-05-06T08:21:18.209Z,118.13
2023-05-06T08:22:18.734Z,146.25
2023-05-06T08:23:19.670Z,191.25
2023-05-06T08:24:20.608Z,168.75
2023-05-06T08:25:21.796Z,225
2023-05-06T08:26:21.517Z,168.75
2023-05-06T08:27:22.668Z,174.38
2023-05-06T08:28:25.168Z,180
2023-05-06T08:29:23.628Z,95.63
2023-05-06T08:30:24.570Z,84.38
2023-05-06T08:31:24.852Z,73.13
2023-05-06T08:32:25.069Z,73.13
2023-05-06T08:33:25.656Z,84.38
2023-05-06T08:34:25.806Z,78.75
2023-05-06T08:35:26.436Z,73.13
2023-05-06T08:36:27.164Z,73.13
2023-05-06T08:37:27.866Z,73.13
2023-05-06T08:38:28.793Z,73.13
2023-05-06T08:39:29.032Z,73.13
2023-05-06T08:40:29.561Z,73.13
2023-05-06T08:41:30.099Z,78.75
2023-05-06T08:42:30.837Z,73.13
2023-05-06T08:43:31.597Z,73.13
2023-05-06T08:44:32.318Z,67.5
2023-05-06T08:45:35.006Z,67.5
2023-05-06T08:46:34.397Z,61.88
2023-05-06T08:47:33.723Z,61.88
2023-05-06T08:48:34.689Z,67.5
2023-05-06T08:49:35.250Z,67.5
2023-05-06T08:50:35.533Z,73.13
2023-05-06T08:51:36.996Z,84.38
2023-05-06T08:52:38.171Z,95.63
2023-05-06T08:53:37.883Z,101.25
2023-05-06T08:54:38.963Z,112.5
2023-05-06T08:55:39.860Z,123.75
2023-05-06T08:56:40.372Z,123.75
2023-05-06T08:57:41.111Z,129.38
2023-05-06T08:58:42.249Z,157.5
2023-05-06T08:59:42.275Z,151.88
2023-05-06T09:00:42.569Z,191.25
2023-05-06T09:01:43.498Z,185.63
2023-05-06T09:02:45.958Z,180
2023-05-06T09:03:44.530Z,213.75
2023-05-06T09:04:44.323Z,303.75
2023-05-06T09:05:45.252Z,225
2023-05-06T09:06:44.936Z,388.13
2023-05-06T09:07:45.311Z,191.25
2023-05-06T09:08:45.840Z,168.75
2023-05-06T09:09:46.683Z,157.5
2023-05-06T09:10:47.468Z,253.13
2023-05-06T09:11:48.207Z,601.88
2023-05-06T09:12:48.938Z,118.13
2023-05-06T09:13:49.422Z,112.5
2023-05-06T09:14:50.140Z,112.5
2023-05-06T09:15:50.898Z,123.75
2023-05-06T09:16:52.201Z,123.75
2023-05-06T09:17:52.172Z,129.38
2023-05-06T09:18:53.298Z,90
2023-05-06T09:19:54.302Z,73.13
2023-05-06T09:20:54.221Z,73.13
2023-05-06T09:21:54.794Z,84.38
2023-05-06T09:22:55.700Z,118.13
2023-05-06T09:23:56.569Z,140.63
2023-05-06T09:24:57.346Z,157.5
2023-05-06T09:25:58.333Z,180
2023-05-06T09:26:58.860Z,202.5
2023-05-06T09:27:59.354Z,219.38
2023-05-06T09:29:00.579Z,264.38
2023-05-06T09:30:00.239Z,438.75
2023-05-06T09:31:01.122Z,528.75
2023-05-06T09:32:01.759Z,466.88
2023-05-06T09:33:02.627Z,500.63
2023-05-06T09:34:03.314Z,500.63
2023-05-06T09:35:03.808Z,466.88
2023-05-06T09:36:03.921Z,455.63
2023-05-06T09:37:04.642Z,461.25
2023-05-06T09:38:07.124Z,393.75
2023-05-06T09:39:05.813Z,365.63
2023-05-06T09:40:06.392Z,517.5
2023-05-06T09:41:07.309Z,421.88
2023-05-06T09:42:07.878Z,326.25
2023-05-06T09:43:08.792Z,405
2023-05-06T09:44:09.666Z,343.13
2023-05-06T09:45:18.654Z,281.25
2023-05-06T09:46:11.209Z,354.38
2023-05-06T09:47:12.183Z,461.25
2023-05-06T09:48:12.858Z,247.5
2023-05-06T09:49:13.772Z,275.63
2023-05-06T09:50:14.647Z,196.88
2023-05-06T09:51:17.520Z,168.75
2023-05-06T09:52:14.983Z,163.13
2023-05-06T09:53:15.915Z,208.13
2023-05-06T09:54:16.833Z,275.63
2023-05-06T09:55:17.232Z,354.38
2023-05-06T09:56:17.370Z,185.63
2023-05-06T09:57:17.473Z,168.75
2023-05-06T09:58:17.021Z,241.88
2023-05-06T09:59:18.089Z,123.75
2023-05-06T10:00:18.490Z,112.5
2023-05-06T10:01:35.863Z,140.63
2023-05-06T10:02:20.046Z,118.13
2023-05-06T10:03:20.787Z,118.13
2023-05-06T10:04:23.223Z,129.38
2023-05-06T10:05:23.571Z,146.25
2023-05-06T10:06:21.514Z,168.75
2023-05-06T10:07:22.448Z,140.63
2023-05-06T10:08:23.200Z,270
2023-05-06T10:09:23.956Z,421.88
2023-05-06T10:10:25.542Z,230.63
2023-05-06T10:11:25.539Z,337.5
2023-05-06T10:12:26.065Z,196.88
2023-05-06T10:13:27.092Z,258.75
2023-05-06T10:14:27.741Z,450
2023-05-06T10:15:28.659Z,495
2023-05-06T10:16:32.289Z,483.75
2023-05-06T10:17:29.891Z,478.13
2023-05-06T10:18:30.433Z,495
2023-05-06T10:19:32.230Z,489.38
2023-05-06T10:20:31.478Z,523.13
2023-05-06T10:21:31.974Z,405
2023-05-06T10:22:32.907Z,281.25
2023-05-06T10:23:33.816Z,196.88
2023-05-06T10:24:34.548Z,253.13
2023-05-06T10:25:35.265Z,168.75
2023-05-06T10:26:36.249Z,163.13
2023-05-06T10:27:36.556Z,326.25
2023-05-06T10:28:46.305Z,489.38
2023-05-06T10:29:39.388Z,528.75
2023-05-06T10:31:39.006Z,253.13
2023-05-06T10:32:39.845Z,185.63
2023-05-06T10:33:42.284Z,202.5
2023-05-06T10:34:40.989Z,579.38
2023-05-06T10:35:41.501Z,545.63
2023-05-06T10:36:42.551Z,298.13
2023-05-06T10:37:42.500Z,556.88
2023-05-06T10:38:42.820Z,534.38
2023-05-06T10:39:46.790Z,534.38
2023-05-06T10:41:45.447Z,511.88
2023-05-06T10:42:45.829Z,517.5
2023-05-06T10:43:46.378Z,517.5
2023-05-06T10:44:47.436Z,517.5
2023-05-06T10:45:48.555Z,511.88
2023-05-06T10:46:49.078Z,511.88
2023-05-06T10:47:50.156Z,180
2023-05-06T10:48:51.101Z,348.75
2023-05-06T10:49:51.919Z,528.75
2023-05-06T10:50:52.811Z,466.88
2023-05-06T10:51:53.570Z,540
2023-05-06T10:52:54.513Z,551.25
2023-05-06T10:53:54.040Z,568.13
2023-05-06T10:54:54.780Z,579.38
2023-05-06T10:55:55.441Z,590.63
2023-05-06T10:56:57.284Z,241.88
2023-05-06T10:57:56.801Z,270
2023-05-06T10:58:57.919Z,213.75
2023-05-06T10:59:57.987Z,208.13
2023-05-06T11:00:59.300Z,320.63
2023-05-06T11:01:58.430Z,230.63
2023-05-06T11:03:02.280Z,174.38
2023-05-06T11:04:00.030Z,157.5
2023-05-06T11:05:01.103Z,140.63
2023-05-06T11:06:00.780Z,146.25
2023-05-06T11:07:00.924Z,157.5
2023-05-06T11:08:01.444Z,180
2023-05-06T11:09:02.902Z,202.5
2023-05-06T11:10:02.431Z,185.63
2023-05-06T11:11:03.159Z,185.63
2023-05-06T11:12:03.697Z,191.25
2023-05-06T11:13:04.453Z,511.88
2023-05-06T11:14:06.804Z,540
2023-05-06T11:15:05.374Z,478.13
2023-05-06T11:16:05.675Z,506.25
2023-05-06T11:17:06.787Z,500.63
2023-05-06T11:18:07.212Z,388.13
2023-05-06T11:19:06.809Z,331.88
2023-05-06T11:20:08.040Z,185.63
2023-05-06T11:21:08.557Z,185.63
2023-05-06T11:22:08.166Z,472.5
2023-05-06T11:23:08.674Z,478.13
2023-05-06T11:24:08.810Z,461.25
2023-05-06T11:25:09.321Z,466.88
2023-05-06T11:26:10.340Z,225
2023-05-06T11:27:09.882Z,410.63
2023-05-06T11:28:10.182Z,450
2023-05-06T11:29:10.700Z,438.75
2023-05-06T11:30:12.073Z,427.5
2023-05-06T11:31:12.534Z,421.88
2023-05-06T11:32:12.725Z,416.25
2023-05-06T11:33:16.430Z,399.38
2023-05-06T11:34:14.551Z,421.88
2023-05-06T11:35:15.482Z,421.88
2023-05-06T11:36:16.219Z,421.88
2023-05-06T11:37:16.979Z,416.25
2023-05-06T11:38:18.054Z,410.63
2023-05-06T11:39:21.553Z,421.88
2023-05-06T11:40:19.830Z,315
2023-05-06T11:41:19.973Z,433.13
2023-05-06T11:42:20.756Z,298.13
2023-05-06T11:43:21.760Z,157.5
2023-05-06T11:44:22.228Z,151.88
2023-05-06T11:45:22.850Z,157.5
2023-05-06T11:46:24.001Z,421.88
2023-05-06T11:47:24.676Z,421.88
2023-05-06T11:48:25.695Z,416.25
2023-05-06T11:49:26.215Z,410.63
2023-05-06T11:50:27.554Z,410.63
2023-05-06T11:51:27.225Z,416.25
2023-05-06T11:52:27.890Z,427.5
2023-05-06T11:53:28.624Z,427.5
2023-05-06T11:54:28.740Z,438.75
2023-05-06T11:55:29.246Z,438.75
2023-05-06T11:56:30.145Z,427.5
2023-05-06T11:57:31.241Z,405
2023-05-06T11:58:31.976Z,405
2023-05-06T11:59:32.519Z,399.38
2023-05-06T12:00:33.696Z,393.75
2023-05-06T12:01:33.744Z,388.13
2023-05-06T12:02:35.035Z,399.38
2023-05-06T12:03:35.692Z,292.5
2023-05-06T12:04:35.657Z,151.88
2023-05-06T12:05:35.830Z,157.5
2023-05-06T12:06:35.914Z,241.88
2023-05-06T12:07:36.428Z,393.75
2023-05-06T12:08:44.326Z,388.13
2023-05-06T12:09:37.853Z,371.25
2023-05-06T12:10:38.801Z,180
2023-05-06T12:11:39.609Z,365.63
2023-05-06T12:12:40.391Z,208.13
2023-05-06T12:13:41.222Z,360
2023-05-06T12:14:41.845Z,371.25
2023-05-06T12:15:42.709Z,376.88
2023-05-06T12:16:43.569Z,405
2023-05-06T12:17:43.762Z,405
2023-05-06T12:18:43.820Z,247.5
2023-05-06T12:19:44.586Z,213.75
2023-05-06T12:20:45.240Z,219.38
2023-05-06T12:21:45.879Z,382.5
2023-05-06T12:22:47.538Z,354.38
2023-05-06T12:23:47.354Z,208.13
2023-05-06T12:24:48.506Z,247.5
2023-05-06T12:25:49.231Z,281.25
2023-05-06T12:26:50.160Z,253.13
2023-05-06T12:27:51.088Z,225
2023-05-06T12:28:51.802Z,202.5
2023-05-06T12:29:52.327Z,270
2023-05-06T12:30:53.363Z,337.5
2023-05-06T12:31:54.817Z,281.25
2023-05-06T12:32:54.972Z,309.38
2023-05-06T12:33:56.684Z,298.13
2023-05-06T12:34:55.078Z,348.75
2023-05-06T12:35:55.899Z,135
2023-05-06T12:36:56.468Z,112.5
2023-05-06T12:37:57.453Z,123.75
2023-05-06T12:38:57.410Z,337.5
2023-05-06T12:39:59.309Z,337.5
2023-05-06T12:40:58.110Z,320.63
2023-05-06T12:41:59.082Z,320.63
2023-05-06T12:42:59.573Z,112.5
2023-05-06T12:44:00.433Z,101.25
2023-05-06T12:45:01.648Z,106.88
2023-05-06T12:46:03.282Z,106.88
2023-05-06T12:47:01.839Z,118.13
2023-05-06T12:48:02.601Z,135
2023-05-06T12:49:03.481Z,202.5
2023-05-06T12:50:04.497Z,371.25
2023-05-06T12:51:05.284Z,354.38
2023-05-06T12:52:05.124Z,348.75
2023-05-06T12:53:05.643Z,348.75
2023-05-06T12:54:06.537Z,303.75
2023-05-06T12:55:07.289Z,354.38
2023-05-06T12:56:07.586Z,343.13
2023-05-06T12:57:08.704Z,315
2023-05-06T12:58:08.882Z,309.38
2023-05-06T12:59:09.594Z,298.13
2023-05-06T13:00:10.527Z,298.13
2023-05-06T13:01:10.626Z,303.75
2023-05-06T13:02:10.284Z,298.13
2023-05-06T13:03:11.600Z,292.5
2023-05-06T13:04:11.821Z,281.25
2023-05-06T13:05:11.067Z,275.63
2023-05-06T13:06:11.462Z,286.88
2023-05-06T13:07:12.044Z,292.5
2023-05-06T13:08:12.227Z,286.88
2023-05-06T13:09:14.137Z,292.5
2023-05-06T13:10:14.914Z,292.5
2023-05-06T13:11:14.859Z,298.13
2023-05-06T13:12:15.969Z,281.25
2023-05-06T13:13:15.599Z,275.63
2023-05-06T13:14:16.364Z,270
2023-05-06T13:15:17.116Z,275.63
2023-05-06T13:16:17.958Z,275.63
2023-05-06T13:17:19.219Z,281.25
2023-05-06T13:18:18.774Z,281.25
2023-05-06T13:19:42.429Z,151.88
2023-05-06T13:20:22.193Z,163.13
2023-05-06T13:21:21.052Z,180
2023-05-06T13:22:21.626Z,123.75
2023-05-06T13:23:21.947Z,135
2023-05-06T13:24:22.689Z,146.25
2023-05-06T13:25:23.454Z,281.25
2023-05-06T13:26:24.384Z,298.13
2023-05-06T13:27:25.497Z,230.63
2023-05-06T13:28:25.426Z,281.25
2023-05-06T13:29:26.159Z,281.25
2023-05-06T13:30:26.823Z,247.5
2023-05-06T13:31:27.652Z,275.63
2023-05-06T13:32:28.105Z,264.38
2023-05-06T13:33:27.401Z,264.38
2023-05-06T13:34:29.449Z,264.38
2023-05-06T13:35:29.228Z,258.75